sensor_id;sensor_type;location;lat;lon;timestamp;temperature;humidity
52397;DHT22;38322;53.108;6.308;2023-05-17T05:02:28;7.80;99.90
52397;DHT22;38322;53.108;6.308;2023-05-17T05:04:54;7.80;99.90
52397;DHT22;38322;53.108;6.308;2023-05-17T05:07:20;7.80;99.90
52397;DHT22;38322;53.108;6.308;2023-05-17T05:09:45;7.80;99.90
52397;DHT22;38322;53.108;6.308;2023-05-17T05:12:11;7.80;99.90
52397;DHT22;38322;53.108;6.308;2023-05-17T05:14:37;7.80;99.90
52397;DHT22;38322;53.108;6.308;2023-05-17T05:17:03;7.80;99.90
52397;DHT22;38322;53.108;6.308;2023-05-17T05:19:28;7.80;99.90
52397;DHT22;38322;53.108;6.308;2023-05-17T05:21:54;7.80;99.90
52397;DHT22;38322;53.108;6.308;2023-05-17T05:24:20;7.80;99.90
52397;DHT22;38322;53.108;6.308;2023-05-17T05:26:45;7.90;99.90
52397;DHT22;38322;53.108;6.308;2023-05-17T05:29:11;8.00;99.90
52397;DHT22;38322;53.108;6.308;2023-05-17T05:31:37;8.10;99.90
52397;DHT22;38322;53.108;6.308;2023-05-17T05:34:03;8.20;99.90
52397;DHT22;38322;53.108;6.308;2023-05-17T05:36:28;8.30;99.90
52397;DHT22;38322;53.108;6.308;2023-05-17T05:38:54;8.20;99.90
52397;DHT22;38322;53.108;6.308;2023-05-17T05:41:20;8.20;99.90
52397;DHT22;38322;53.108;6.308;2023-05-17T05:43:46;8.20;99.90
52397;DHT22;38322;53.108;6.308;2023-05-17T05:46:11;8.30;99.90
52397;DHT22;38322;53.108;6.308;2023-05-17T05:48:37;8.40;99.90
52397;DHT22;38322;53.108;6.308;2023-05-17T05:51:06;8.30;99.90
52397;DHT22;38322;53.108;6.308;2023-05-17T05:53:32;8.30;99.90
52397;DHT22;38322;53.108;6.308;2023-05-17T05:55:58;8.30;99.90
52397;DHT22;38322;53.108;6.308;2023-05-17T05:58:24;8.20;99.90
52397;DHT22;38322;53.108;6.308;2023-05-17T06:00:49;8.30;99.90
52397;DHT22;38322;53.108;6.308;2023-05-17T06:03:15;8.30;99.90
52397;DHT22;38322;53.108;6.308;2023-05-17T06:05:41;8.30;99.90
52397;DHT22;38322;53.108;6.308;2023-05-17T06:08:07;8.30;99.90
52397;DHT22;38322;53.108;6.308;2023-05-17T06:10:33;8.40;99.90
52397;DHT22;38322;53.108;6.308;2023-05-17T06:12:59;8.50;99.90
52397;DHT22;38322;53.108;6.308;2023-05-17T06:15:25;8.70;99.90
52397;DHT22;38322;53.108;6.308;2023-05-17T06:17:51;8.90;99.90
52397;DHT22;38322;53.108;6.308;2023-05-17T06:20:17;9.00;99.90
52397;DHT22;38322;53.108;6.308;2023-05-17T06:22:43;9.20;99.90
52397;DHT22;38322;53.108;6.308;2023-05-17T06:25:09;9.30;99.90
52397;DHT22;38322;53.108;6.308;2023-05-17T06:27:36;9.50;99.90
52397;DHT22;38322;53.108;6.308;2023-05-17T06:30:02;9.60;99.90
52397;DHT22;38322;53.108;6.308;2023-05-17T06:32:30;9.70;99.90
52397;DHT22;38322;53.108;6.308;2023-05-17T06:34:55;9.60;99.90
52397;DHT22;38322;53.108;6.308;2023-05-17T06:37:22;9.50;99.90
52397;DHT22;38322;53.108;6.308;2023-05-17T06:39:50;9.30;99.90
52397;DHT22;38322;53.108;6.308;2023-05-17T06:42:17;9.20;99.90
52397;DHT22;38322;53.108;6.308;2023-05-17T06:44:43;9.10;99.90
52397;DHT22;38322;53.108;6.308;2023-05-17T06:47:08;9.30;99.90
52397;DHT22;38322;53.108;6.308;2023-05-17T06:49:35;9.50;99.90
52397;DHT22;38322;53.108;6.308;2023-05-17T06:52:01;9.70;99.90
52397;DHT22;38322;53.108;6.308;2023-05-17T06:54:28;9.90;99.90
52397;DHT22;38322;53.108;6.308;2023-05-17T06:56:58;10.00;99.90
52397;DHT22;38322;53.108;6.308;2023-05-17T06:59:24;10.00;99.90
52397;DHT22;38322;53.108;6.308;2023-05-17T07:01:50;10.00;99.90
52397;DHT22;38322;53.108;6.308;2023-05-17T07:04:15;9.90;99.90
52397;DHT22;38322;53.108;6.308;2023-05-17T07:06:41;9.90;99.90
52397;DHT22;38322;53.108;6.308;2023-05-17T07:09:07;9.80;99.90
52397;DHT22;38322;53.108;6.308;2023-05-17T07:11:33;9.80;99.90
52397;DHT22;38322;53.108;6.308;2023-05-17T07:13:58;9.80;99.90
52397;DHT22;38322;53.108;6.308;2023-05-17T07:16:24;9.80;99.90
52397;DHT22;38322;53.108;6.308;2023-05-17T07:18:50;9.80;99.90
52397;DHT22;38322;53.108;6.308;2023-05-17T07:21:16;9.70;99.90
52397;DHT22;38322;53.108;6.308;2023-05-17T07:23:41;9.70;99.90
52397;DHT22;38322;53.108;6.308;2023-05-17T07:26:07;9.60;99.90
52397;DHT22;38322;53.108;6.308;2023-05-17T07:28:33;9.50;99.90
52397;DHT22;38322;53.108;6.308;2023-05-17T07:30:59;9.50;99.90
52397;DHT22;38322;53.108;6.308;2023-05-17T07:33:24;9.40;99.90
52397;DHT22;38322;53.108;6.308;2023-05-17T07:35:50;9.30;99.90
52397;DHT22;38322;53.108;6.308;2023-05-17T07:38:16;9.30;99.90
52397;DHT22;38322;53.108;6.308;2023-05-17T07:40:42;9.30;99.90
52397;DHT22;38322;53.108;6.308;2023-05-17T07:43:07;9.30;99.90
52397;DHT22;38322;53.108;6.308;2023-05-17T07:45:33;9.40;99.90
52397;DHT22;38322;53.108;6.308;2023-05-17T07:47:59;9.50;99.90
52397;DHT22;38322;53.108;6.308;2023-05-17T07:50:25;9.60;99.90
52397;DHT22;38322;53.108;6.308;2023-05-17T07:52:51;9.80;99.90
52397;DHT22;38322;53.108;6.308;2023-05-17T07:55:17;10.00;99.90
52397;DHT22;38322;53.108;6.308;2023-05-17T07:57:44;10.10;99.90
52397;DHT22;38322;53.108;6.308;2023-05-17T08:00:12;10.10;99.90
52397;DHT22;38322;53.108;6.308;2023-05-17T08:02:39;10.20;99.90
52397;DHT22;38322;53.108;6.308;2023-05-17T08:05:05;10.30;99.90
52397;DHT22;38322;53.108;6.308;2023-05-17T08:07:32;10.30;99.90
52397;DHT22;38322;53.108;6.308;2023-05-17T08:09:58;10.40;99.90
52397;DHT22;38322;53.108;6.308;2023-05-17T08:12:24;10.30;99.90
52397;DHT22;38322;53.108;6.308;2023-05-17T08:14:50;10.30;99.90
52397;DHT22;38322;53.108;6.308;2023-05-17T08:17:16;10.30;99.90
52397;DHT22;38322;53.108;6.308;2023-05-17T08:19:42;10.40;99.90
52397;DHT22;38322;53.108;6.308;2023-05-17T08:22:08;10.40;99.90
52397;DHT22;38322;53.108;6.308;2023-05-17T08:24:35;10.40;99.90
52397;DHT22;38322;53.108;6.308;2023-05-17T08:27:00;10.50;99.90
52397;DHT22;38322;53.108;6.308;2023-05-17T08:29:26;10.40;99.90
52397;DHT22;38322;53.108;6.308;2023-05-17T08:31:54;10.40;99.90
52397;DHT22;38322;53.108;6.308;2023-05-17T08:34:20;10.30;99.90
52397;DHT22;38322;53.108;6.308;2023-05-17T08:36:46;10.30;99.90
52397;DHT22;38322;53.108;6.308;2023-05-17T08:39:12;10.30;99.90
52397;DHT22;38322;53.108;6.308;2023-05-17T08:41:38;10.50;99.90
52397;DHT22;38322;53.108;6.308;2023-05-17T08:44:05;10.80;99.90
52397;DHT22;38322;53.108;6.308;2023-05-17T08:46:32;10.90;99.90
52397;DHT22;38322;53.108;6.308;2023-05-17T08:48:59;11.00;99.90
52397;DHT22;38322;53.108;6.308;2023-05-17T08:51:28;11.00;99.90
52397;DHT22;38322;53.108;6.308;2023-05-17T08:53:54;10.90;99.90
52397;DHT22;38322;53.108;6.308;2023-05-17T08:56:22;10.90;99.90
52397;DHT22;38322;53.108;6.308;2023-05-17T08:58:51;10.80;99.90
52397;DHT22;38322;53.108;6.308;2023-05-17T09:01:18;10.70;99.90
52397;DHT22;38322;53.108;6.308;2023-05-17T09:03:46;10.80;99.90
52397;DHT22;38322;53.108;6.308;2023-05-17T09:06:15;10.80;99.90
52397;DHT22;38322;53.108;6.308;2023-05-17T09:08:43;10.80;99.90
52397;DHT22;38322;53.108;6.308;2023-05-17T09:11:09;10.90;99.90
52397;DHT22;38322;53.108;6.308;2023-05-17T09:13:36;11.10;99.90
52397;DHT22;38322;53.108;6.308;2023-05-17T09:16:02;11.10;99.90
52397;DHT22;38322;53.108;6.308;2023-05-17T09:18:29;11.10;99.90
52397;DHT22;38322;53.108;6.308;2023-05-17T09:21:01;11.00;99.90
52397;DHT22;38322;53.108;6.308;2023-05-17T09:23:30;10.90;99.90
52397;DHT22;38322;53.108;6.308;2023-05-17T09:26:03;11.00;99.90
52397;DHT22;38322;53.108;6.308;2023-05-17T09:28:37;11.20;99.90
52397;DHT22;38322;53.108;6.308;2023-05-17T09:31:06;11.40;99.90
52397;DHT22;38322;53.108;6.308;2023-05-17T09:33:32;11.40;99.90
52397;DHT22;38322;53.108;6.308;2023-05-17T09:35:58;11.30;99.90
52397;DHT22;38322;53.108;6.308;2023-05-17T09:38:25;11.10;99.90
52397;DHT22;38322;53.108;6.308;2023-05-17T09:40:52;11.00;99.90
52397;DHT22;38322;53.108;6.308;2023-05-17T09:43:23;11.00;99.90
52397;DHT22;38322;53.108;6.308;2023-05-17T09:45:57;11.20;99.90
52397;DHT22;38322;53.108;6.308;2023-05-17T09:48:25;11.40;99.90
52397;DHT22;38322;53.108;6.308;2023-05-17T09:50:52;11.50;99.90
52397;DHT22;38322;53.108;6.308;2023-05-17T09:53:30;11.60;99.90
52397;DHT22;38322;53.108;6.308;2023-05-17T09:55:59;11.60;99.90
52397;DHT22;38322;53.108;6.308;2023-05-17T09:58:26;11.60;99.90
52397;DHT22;38322;53.108;6.308;2023-05-17T10:00:57;11.50;99.90
52397;DHT22;38322;53.108;6.308;2023-05-17T10:03:25;11.60;99.90
52397;DHT22;38322;53.108;6.308;2023-05-17T10:05:52;11.60;99.90
52397;DHT22;38322;53.108;6.308;2023-05-17T10:08:21;11.90;99.90
52397;DHT22;38322;53.108;6.308;2023-05-17T10:10:48;12.00;99.90
52397;DHT22;38322;53.108;6.308;2023-05-17T10:13:20;12.10;99.90
52397;DHT22;38322;53.108;6.308;2023-05-17T10:15:50;12.10;99.90
52397;DHT22;38322;53.108;6.308;2023-05-17T10:18:16;12.10;99.90
52397;DHT22;38322;53.108;6.308;2023-05-17T10:20:42;12.10;99.90
52397;DHT22;38322;53.108;6.308;2023-05-17T10:23:10;12.10;99.90
52397;DHT22;38322;53.108;6.308;2023-05-17T10:25:37;12.00;99.90
52397;DHT22;38322;53.108;6.308;2023-05-17T10:28:03;11.80;99.90
52397;DHT22;38322;53.108;6.308;2023-05-17T10:30:32;11.70;99.90
52397;DHT22;38322;53.108;6.308;2023-05-17T10:32:59;11.60;99.90
52397;DHT22;38322;53.108;6.308;2023-05-17T10:35:26;11.50;99.90
52397;DHT22;38322;53.108;6.308;2023-05-17T10:37:52;11.80;99.90
52397;DHT22;38322;53.108;6.308;2023-05-17T10:40:18;12.00;99.90
52397;DHT22;38322;53.108;6.308;2023-05-17T10:42:50;12.10;99.90
52397;DHT22;38322;53.108;6.308;2023-05-17T10:45:19;12.00;99.90
52397;DHT22;38322;53.108;6.308;2023-05-17T10:47:46;11.80;99.90
52397;DHT22;38322;53.108;6.308;2023-05-17T10:50:14;11.80;99.90
52397;DHT22;38322;53.108;6.308;2023-05-17T10:52:47;11.70;99.90
52397;DHT22;38322;53.108;6.308;2023-05-17T10:55:36;11.90;99.90
52397;DHT22;38322;53.108;6.308;2023-05-17T10:58:16;12.10;99.90
52397;DHT22;38322;53.108;6.308;2023-05-17T11:00:44;12.20;99.90
52397;DHT22;38322;53.108;6.308;2023-05-17T11:03:19;12.30;99.90
52397;DHT22;38322;53.108;6.308;2023-05-17T11:08:30;12.40;99.90
52397;DHT22;38322;53.108;6.308;2023-05-17T11:11:09;12.30;99.90
52397;DHT22;38322;53.108;6.308;2023-05-17T11:13:54;12.00;99.90
52397;DHT22;38322;53.108;6.308;2023-05-17T11:16:21;11.80;99.90
52397;DHT22;38322;53.108;6.308;2023-05-17T11:18:51;11.80;99.90
52397;DHT22;38322;53.108;6.308;2023-05-17T11:21:18;11.90;99.90
52397;DHT22;38322;53.108;6.308;2023-05-17T11:23:45;12.00;99.90
52397;DHT22;38322;53.108;6.308;2023-05-17T11:26:18;12.00;99.90
52397;DHT22;38322;53.108;6.308;2023-05-17T11:28:46;12.00;99.90
52397;DHT22;38322;53.108;6.308;2023-05-17T11:31:12;11.90;99.90
52397;DHT22;38322;53.108;6.308;2023-05-17T11:33:41;12.10;99.90
52397;DHT22;38322;53.108;6.308;2023-05-17T11:36:19;12.10;99.90
52397;DHT22;38322;53.108;6.308;2023-05-17T11:38:49;12.20;99.90
52397;DHT22;38322;53.108;6.308;2023-05-17T11:41:36;12.40;99.90
52397;DHT22;38322;53.108;6.308;2023-05-17T11:44:06;12.40;99.90
52397;DHT22;38322;53.108;6.308;2023-05-17T11:46:34;12.30;99.90
52397;DHT22;38322;53.108;6.308;2023-05-17T11:49:06;12.10;99.90
52397;DHT22;38322;53.108;6.308;2023-05-17T11:51:32;12.10;99.90
52397;DHT22;38322;53.108;6.308;2023-05-17T11:53:59;12.30;99.90
52397;DHT22;38322;53.108;6.308;2023-05-17T11:56:33;12.60;99.90
52397;DHT22;38322;53.108;6.308;2023-05-17T11:58:59;12.70;99.90
52397;DHT22;38322;53.108;6.308;2023-05-17T12:01:26;12.70;99.90
52397;DHT22;38322;53.108;6.308;2023-05-17T12:03:57;12.50;99.90
52397;DHT22;38322;53.108;6.308;2023-05-17T12:06:24;12.40;99.90
52397;DHT22;38322;53.108;6.308;2023-05-17T12:08:51;12.10;99.90
52397;DHT22;38322;53.108;6.308;2023-05-17T12:11:17;12.10;99.90
52397;DHT22;38322;53.108;6.308;2023-05-17T12:13:44;11.90;99.90
52397;DHT22;38322;53.108;6.308;2023-05-17T12:16:12;11.90;99.90
52397;DHT22;38322;53.108;6.308;2023-05-17T12:18:43;11.90;99.90
52397;DHT22;38322;53.108;6.308;2023-05-17T12:21:13;12.10;99.90
52397;DHT22;38322;53.108;6.308;2023-05-17T12:23:41;12.10;99.90
52397;DHT22;38322;53.108;6.308;2023-05-17T12:26:10;12.00;99.90
52397;DHT22;38322;53.108;6.308;2023-05-17T12:28:40;12.10;99.90
52397;DHT22;38322;53.108;6.308;2023-05-17T12:31:10;12.10;99.90
52397;DHT22;38322;53.108;6.308;2023-05-17T12:33:38;12.20;99.90
52397;DHT22;38322;53.108;6.308;2023-05-17T12:36:07;12.10;99.90
52397;DHT22;38322;53.108;6.308;2023-05-17T12:38:34;12.40;99.90
52397;DHT22;38322;53.108;6.308;2023-05-17T12:41:02;12.60;99.90
52397;DHT22;38322;53.108;6.308;2023-05-17T12:43:29;12.70;99.90
52397;DHT22;38322;53.108;6.308;2023-05-17T12:46:08;12.90;99.90
52397;DHT22;38322;53.108;6.308;2023-05-17T12:48:35;13.10;99.90
52397;DHT22;38322;53.108;6.308;2023-05-17T12:51:11;12.90;99.90
52397;DHT22;38322;53.108;6.308;2023-05-17T12:53:42;12.60;99.90
52397;DHT22;38322;53.108;6.308;2023-05-17T12:56:13;12.40;99.90
52397;DHT22;38322;53.108;6.308;2023-05-17T12:58:39;12.40;99.90
52397;DHT22;38322;53.108;6.308;2023-05-17T13:01:05;12.70;99.90
52397;DHT22;38322;53.108;6.308;2023-05-17T13:03:32;12.90;99.90
52397;DHT22;38322;53.108;6.308;2023-05-17T13:06:06;13.10;99.90
52397;DHT22;38322;53.108;6.308;2023-05-17T13:25:43;13.20;99.90
52397;DHT22;38322;53.108;6.308;2023-05-17T13:28:08;13.30;99.90
52397;DHT22;38322;53.108;6.308;2023-05-17T13:30:34;13.20;99.90
52397;DHT22;38322;53.108;6.308;2023-05-17T13:33:00;13.00;99.90
52397;DHT22;38322;53.108;6.308;2023-05-17T13:35:26;13.00;99.90
52397;DHT22;38322;53.108;6.308;2023-05-17T13:37:51;13.10;99.90
52397;DHT22;38322;53.108;6.308;2023-05-17T13:40:18;13.50;99.90
52397;DHT22;38322;53.108;6.308;2023-05-17T13:42:44;13.80;99.90
52397;DHT22;38322;53.108;6.308;2023-05-17T13:45:10;13.90;99.90
52397;DHT22;38322;53.108;6.308;2023-05-17T13:47:37;13.50;99.90
52397;DHT22;38322;53.108;6.308;2023-05-17T13:50:03;13.40;99.90
52397;DHT22;38322;53.108;6.308;2023-05-17T13:52:29;13.50;99.90
52397;DHT22;38322;53.108;6.308;2023-05-17T13:54:56;13.60;99.90
52397;DHT22;38322;53.108;6.308;2023-05-17T13:57:22;13.70;99.90
52397;DHT22;38322;53.108;6.308;2023-05-17T13:59:48;13.80;99.90
52397;DHT22;38322;53.108;6.308;2023-05-17T14:02:13;13.90;99.90
52397;DHT22;38322;53.108;6.308;2023-05-17T14:04:39;13.90;99.90
52397;DHT22;38322;53.108;6.308;2023-05-17T14:07:06;13.70;99.90
52397;DHT22;38322;53.108;6.308;2023-05-17T14:09:31;13.50;99.90
52397;DHT22;38322;53.108;6.308;2023-05-17T14:11:59;13.50;99.90
52397;DHT22;38322;53.108;6.308;2023-05-17T14:14:26;13.30;99.90
52397;DHT22;38322;53.108;6.308;2023-05-17T14:16:53;13.30;99.90
52397;DHT22;38322;53.108;6.308;2023-05-17T14:19:19;13.30;99.90
52397;DHT22;38322;53.108;6.308;2023-05-17T14:21:45;12.90;99.90
52397;DHT22;38322;53.108;6.308;2023-05-17T14:24:11;13.00;99.90
52397;DHT22;38322;53.108;6.308;2023-05-17T14:26:37;13.10;99.90
52397;DHT22;38322;53.108;6.308;2023-05-17T14:29:03;13.00;99.90
52397;DHT22;38322;53.108;6.308;2023-05-17T14:31:30;12.80;99.90
52397;DHT22;38322;53.108;6.308;2023-05-17T14:33:57;12.80;99.90
52397;DHT22;38322;53.108;6.308;2023-05-17T14:36:26;13.10;99.90
52397;DHT22;38322;53.108;6.308;2023-05-17T14:38:51;13.50;99.90
52397;DHT22;38322;53.108;6.308;2023-05-17T14:41:17;13.50;99.90
52397;DHT22;38322;53.108;6.308;2023-05-17T14:43:43;13.30;99.90
52397;DHT22;38322;53.108;6.308;2023-05-17T14:46:09;13.10;99.90
52397;DHT22;38322;53.108;6.308;2023-05-17T14:48:35;12.90;99.90
52397;DHT22;38322;53.108;6.308;2023-05-17T14:51:01;12.90;99.90
52397;DHT22;38322;53.108;6.308;2023-05-17T14:53:28;12.80;99.90
52397;DHT22;38322;53.108;6.308;2023-05-17T14:55:55;12.70;99.90
52397;DHT22;38322;53.108;6.308;2023-05-17T14:58:21;12.50;99.90
52397;DHT22;38322;53.108;6.308;2023-05-17T15:00:48;12.40;99.90
52397;DHT22;38322;53.108;6.308;2023-05-17T15:03:16;12.40;99.90
52397;DHT22;38322;53.108;6.308;2023-05-17T15:05:42;12.30;99.90
52397;DHT22;38322;53.108;6.308;2023-05-17T15:08:08;12.20;99.90
52397;DHT22;38322;53.108;6.308;2023-05-17T15:10:37;12.20;99.90
52397;DHT22;38322;53.108;6.308;2023-05-17T15:13:03;12.20;99.90
52397;DHT22;38322;53.108;6.308;2023-05-17T15:15:28;12.20;99.90
52397;DHT22;38322;53.108;6.308;2023-05-17T15:17:54;12.10;99.90
52397;DHT22;38322;53.108;6.308;2023-05-17T15:20:20;12.30;99.90
52397;DHT22;38322;53.108;6.308;2023-05-17T15:22:46;12.80;99.90
52397;DHT22;38322;53.108;6.308;2023-05-17T15:25:14;13.20;99.90
52397;DHT22;38322;53.108;6.308;2023-05-17T15:27:40;13.70;99.90
52397;DHT22;38322;53.108;6.308;2023-05-17T15:30:06;13.90;99.90
52397;DHT22;38322;53.108;6.308;2023-05-17T15:32:32;13.50;99.90
52397;DHT22;38322;53.108;6.308;2023-05-17T15:34:58;13.30;99.90
52397;DHT22;38322;53.108;6.308;2023-05-17T15:37:24;13.00;99.90
52397;DHT22;38322;53.108;6.308;2023-05-17T15:39:50;12.80;99.90
52397;DHT22;38322;53.108;6.308;2023-05-17T15:42:16;12.80;99.90
52397;DHT22;38322;53.108;6.308;2023-05-17T15:44:41;13.10;99.90
52397;DHT22;38322;53.108;6.308;2023-05-17T15:47:07;13.60;99.90
52397;DHT22;38322;53.108;6.308;2023-05-17T15:49:33;13.70;99.90
52397;DHT22;38322;53.108;6.308;2023-05-17T15:51:59;13.50;99.90
52397;DHT22;38322;53.108;6.308;2023-05-17T15:54:25;13.10;99.90
52397;DHT22;38322;53.108;6.308;2023-05-17T15:56:50;12.90;99.90
52397;DHT22;38322;53.108;6.308;2023-05-17T15:59:16;12.50;99.90
52397;DHT22;38322;53.108;6.308;2023-05-17T16:01:42;12.30;99.90
52397;DHT22;38322;53.108;6.308;2023-05-17T16:04:11;12.20;99.90
52397;DHT22;38322;53.108;6.308;2023-05-17T16:06:37;11.90;99.90
52397;DHT22;38322;53.108;6.308;2023-05-17T16:09:03;11.70;99.90
52397;DHT22;38322;53.108;6.308;2023-05-17T16:11:29;11.50;99.90
52397;DHT22;38322;53.108;6.308;2023-05-17T16:13:55;11.40;99.90
52397;DHT22;38322;53.108;6.308;2023-05-17T16:16:21;11.30;99.90
52397;DHT22;38322;53.108;6.308;2023-05-17T16:18:47;11.40;99.90
52397;DHT22;38322;53.108;6.308;2023-05-17T16:21:13;12.00;99.90
52397;DHT22;38322;53.108;6.308;2023-05-17T16:23:39;12.40;99.90
52397;DHT22;38322;53.108;6.308;2023-05-17T16:26:04;12.50;99.90
52397;DHT22;38322;53.108;6.308;2023-05-17T16:28:31;12.40;99.90
52397;DHT22;38322;53.108;6.308;2023-05-17T16:30:59;12.20;99.90
52397;DHT22;38322;53.108;6.308;2023-05-17T16:33:25;12.10;99.90
52397;DHT22;38322;53.108;6.308;2023-05-17T16:35:51;12.00;99.90
52397;DHT22;38322;53.108;6.308;2023-05-17T16:38:17;11.80;99.90
52397;DHT22;38322;53.108;6.308;2023-05-17T16:40:43;11.60;99.90
52397;DHT22;38322;53.108;6.308;2023-05-17T16:43:09;11.50;99.90
52397;DHT22;38322;53.108;6.308;2023-05-17T16:45:41;11.20;99.90
52397;DHT22;38322;53.108;6.308;2023-05-17T16:48:07;11.10;99.90
52397;DHT22;38322;53.108;6.308;2023-05-17T16:50:32;10.90;99.90
52397;DHT22;38322;53.108;6.308;2023-05-17T16:52:58;10.80;99.90
52397;DHT22;38322;53.108;6.308;2023-05-17T16:55:24;11.10;99.90
52397;DHT22;38322;53.108;6.308;2023-05-17T16:57:50;11.60;99.90
52397;DHT22;38322;53.108;6.308;2023-05-17T17:00:16;12.10;99.90
52397;DHT22;38322;53.108;6.308;2023-05-17T17:02:42;12.10;99.90
52397;DHT22;38322;53.108;6.308;2023-05-17T17:05:08;12.10;99.90
52397;DHT22;38322;53.108;6.308;2023-05-17T17:07:34;11.70;99.90
52397;DHT22;38322;53.108;6.308;2023-05-17T17:10:00;11.50;99.90
52397;DHT22;38322;53.108;6.308;2023-05-17T17:12:26;11.40;99.90
52397;DHT22;38322;53.108;6.308;2023-05-17T17:14:52;11.80;99.90
52397;DHT22;38322;53.108;6.308;2023-05-17T17:17:18;12.20;99.90
52397;DHT22;38322;53.108;6.308;2023-05-17T17:19:44;12.40;99.90
52397;DHT22;38322;53.108;6.308;2023-05-17T17:22:10;12.70;99.90
52397;DHT22;38322;53.108;6.308;2023-05-17T17:24:37;13.20;99.90
52397;DHT22;38322;53.108;6.308;2023-05-17T17:27:03;13.80;99.90
52397;DHT22;38322;53.108;6.308;2023-05-17T17:29:28;14.40;99.90
52397;DHT22;38322;53.108;6.308;2023-05-17T17:31:54;14.30;99.90
52397;DHT22;38322;53.108;6.308;2023-05-17T17:34:21;13.80;99.90
52397;DHT22;38322;53.108;6.308;2023-05-17T17:36:47;13.30;99.90
52397;DHT22;38322;53.108;6.308;2023-05-17T17:39:12;12.90;99.90
52397;DHT22;38322;53.108;6.308;2023-05-17T17:41:39;12.60;99.90
52397;DHT22;38322;53.108;6.308;2023-05-17T17:44:05;12.30;99.90
52397;DHT22;38322;53.108;6.308;2023-05-17T17:46:31;12.00;99.90
52397;DHT22;38322;53.108;6.308;2023-05-17T17:48:57;11.70;99.90
52397;DHT22;38322;53.108;6.308;2023-05-17T17:51:23;11.30;99.90
52397;DHT22;38322;53.108;6.308;2023-05-17T17:53:49;11.10;99.90
52397;DHT22;38322;53.108;6.308;2023-05-17T17:56:16;10.80;99.90
52397;DHT22;38322;53.108;6.308;2023-05-17T17:58:42;10.70;99.90
52397;DHT22;38322;53.108;6.308;2023-05-17T18:01:09;10.60;99.90
52397;DHT22;38322;53.108;6.308;2023-05-17T18:03:35;10.50;99.90
52397;DHT22;38322;53.108;6.308;2023-05-17T18:06:01;10.40;99.90
52397;DHT22;38322;53.108;6.308;2023-05-17T18:08:27;10.30;99.90
52397;DHT22;38322;53.108;6.308;2023-05-17T18:10:52;10.30;99.90
52397;DHT22;38322;53.108;6.308;2023-05-17T18:13:18;10.20;99.90
52397;DHT22;38322;53.108;6.308;2023-05-17T18:15:44;10.10;99.90
52397;DHT22;38322;53.108;6.308;2023-05-17T18:18:10;10.00;99.90
52397;DHT22;38322;53.108;6.308;2023-05-17T18:20:35;10.00;99.90
52397;DHT22;38322;53.108;6.308;2023-05-17T18:23:01;9.90;99.90
52397;DHT22;38322;53.108;6.308;2023-05-17T18:25:27;9.80;99.90
52397;DHT22;38322;53.108;6.308;2023-05-17T18:27:53;9.70;99.90
52397;DHT22;38322;53.108;6.308;2023-05-17T18:30:18;9.70;99.90
52397;DHT22;38322;53.108;6.308;2023-05-17T18:32:44;9.60;99.90
52397;DHT22;38322;53.108;6.308;2023-05-17T18:35:10;9.60;99.90
52397;DHT22;38322;53.108;6.308;2023-05-17T18:37:36;9.60;99.90
52397;DHT22;38322;53.108;6.308;2023-05-17T18:40:02;9.50;99.90
52397;DHT22;38322;53.108;6.308;2023-05-17T18:42:28;9.50;99.90
52397;DHT22;38322;53.108;6.308;2023-05-17T18:44:54;9.50;99.90
52397;DHT22;38322;53.108;6.308;2023-05-17T18:47:20;9.40;99.90
52397;DHT22;38322;53.108;6.308;2023-05-17T18:49:47;9.30;99.90
52397;DHT22;38322;53.108;6.308;2023-05-17T18:52:13;9.30;99.90
52397;DHT22;38322;53.108;6.308;2023-05-17T18:54:39;9.30;99.90
52397;DHT22;38322;53.108;6.308;2023-05-17T18:57:05;9.30;99.90
52397;DHT22;38322;53.108;6.308;2023-05-17T18:59:31;9.30;99.90
52397;DHT22;38322;53.108;6.308;2023-05-17T19:01:57;9.20;99.90
52397;DHT22;38322;53.108;6.308;2023-05-17T19:04:24;9.30;99.90
52397;DHT22;38322;53.108;6.308;2023-05-17T19:06:50;9.40;99.90
52397;DHT22;38322;53.108;6.308;2023-05-17T19:09:16;9.40;99.90
52397;DHT22;38322;53.108;6.308;2023-05-17T19:11:42;9.50;99.90
52397;DHT22;38322;53.108;6.308;2023-05-17T19:14:08;9.50;99.90
52397;DHT22;38322;53.108;6.308;2023-05-17T19:16:33;9.50;99.90
52397;DHT22;38322;53.108;6.308;2023-05-17T19:18:59;9.50;99.90
52397;DHT22;38322;53.108;6.308;2023-05-17T19:21:25;9.50;99.90
52397;DHT22;38322;53.108;6.308;2023-05-17T19:23:51;9.50;99.90
52397;DHT22;38322;53.108;6.308;2023-05-17T19:26:17;9.60;99.90
52397;DHT22;38322;53.108;6.308;2023-05-17T19:28:43;9.50;99.90
52397;DHT22;38322;53.108;6.308;2023-05-17T19:31:08;9.50;99.90
52397;DHT22;38322;53.108;6.308;2023-05-17T19:33:34;9.40;99.90
52397;DHT22;38322;53.108;6.308;2023-05-17T19:36:02;9.30;99.90
52397;DHT22;38322;53.108;6.308;2023-05-17T19:38:28;9.30;99.90
52397;DHT22;38322;53.108;6.308;2023-05-17T19:40:53;9.20;99.90
52397;DHT22;38322;53.108;6.308;2023-05-17T19:43:19;9.10;99.90
52397;DHT22;38322;53.108;6.308;2023-05-17T19:45:45;9.00;99.90
52397;DHT22;38322;53.108;6.308;2023-05-17T19:48:11;8.90;99.90
52397;DHT22;38322;53.108;6.308;2023-05-17T19:50:36;8.90;99.90
52397;DHT22;38322;53.108;6.308;2023-05-17T19:53:02;8.80;99.90
52397;DHT22;38322;53.108;6.308;2023-05-17T19:55:28;8.70;99.90
52397;DHT22;38322;53.108;6.308;2023-05-17T19:57:56;8.60;99.90
52397;DHT22;38322;53.108;6.308;2023-05-17T20:00:22;8.50;99.90
